Ashby, MN

12:30 PM CDT on July 10, 2014 (GMT -0500)
Elbow Lake (KY63) Elev 1204 ft | 45.99 °N, 95.99 °W | Change Station

Current weather conditions updated 4 minutes ago

Clear
Clear
77 °F
Feels Like 77 °F
N
8
Wind Variable Wind from SE

Today is forecast to be Warmer than yesterday. Thunderstorms tonight.

Today
High -- | Low -- °F
--% Chance of Precip.
Yesterday
High -- | Low -- °F
Precip. -- in
5:42 AM 9:14 PM
Waxing Gibbous, 96% visible
Pressure 29.96 in
Visibility 10.0 miles
Clouds Clear
Dew Point 59 °F
Humidity 54%
Rainfall 0.00 in
Snow Depth Not available.
UV 10 out of 12
Pollen 4.70 out of 12
Air Quality Not available.
Flu Activity Sporadic
METAR KY63 101726Z AUTO 14007KT 10SM CLR 25/15 A2996 RMK AO2

More Conditions Fewer Conditions

Pressure 29.96 in
Visibility 10.0 miles
Clouds Clear
Dew Point 59 °F
Humidity 54%
Rainfall 0.00 in
Snow Depth Not available.
UV 10 out of 12
Pollen 4.70 out of 12
Air Quality Not available.
Flu Activity Sporadic
METAR KY63 101726Z AUTO 14007KT 10SM CLR 25/15 A2996 RMK AO2

More Conditions Fewer Conditions

10-Day Weather Forecast

Almanac

Astronomy

Jul. 10, 2014 Rise Set
Actual Time 5:42 AM CDT 9:14 PM CDT
Civil Twilight 5:04 AM CDT 9:51 PM CDT
Nautical Twilight 4:14 AM CDT 10:41 PM CDT
Astronomical Twilight 3:08 AM CDT 11:46 PM CDT
Moon 7:24 PM CDT 3:58 AM CDT
Length of Visible Light 16h 47m
Length of Day
15h 31m
Tomorrow will be 1m 27s shorter.
Waxing Gibbous, 96% of the Moon is Illuminated
Today
Waxing Gibbous
Jul 12
Full
Jul 18
Last Quarter
Jul 26
New
Aug 3
First Quarter

Today's Extremes

State Highs State Lows

Community

WunderPhotos

Upload Photos

1,732,202 photos uploaded!

WunderBlogs® & News

Nearby

Snow Depth

Station Depth Elevation
No new snow has been reported.

Earthquake Activity

City Distance Mag. Time & Date
No recent earthquake activity has been reported nearby.
Minimum magnitude displayed is 2.5.

Coastal Water Temperatures

Place Temperature
No Stations Reporting

Nearby Weather Stations

Station Location Temp. Heat Index Dew Point Humidity Wind Precip. Elev Updated Type
Gardonville, Brandon, MN 75.8 °F 78 °F 61 °F 60% SSE  at  1.0 mph 0.00 in / hr 1411 ft 12:30 PM CDT Rapid Fire
Hoffman MN, Hoffman, MN 81.5 °F 83 °F 64 °F 56% South  at  8.3 mph 0.00 in / hr 1240 ft 12:28 PM CDT Normal
APRSWXNET Vining MN , Vining, MN 76 °F 78 °F 59 °F 56% SSE  at  2 mph 0.00 in / hr 1561 ft 11:36 AM CDT MADIS

Show More Stations Show Fewer Stations